Hovedside
METAR-TAF:

METAR-TAF

Lufthavner :

Vasa lufthavn

Vasa, Finland

breddegrad: 63-03N, lengdegrad: 021-46E, høyde over havet: 4 m

Gjeldene værobservasjon

Denne rapporten ble laget for 14 minutter siden, klokken 14:20 UTC
Vind 6 kt fra Øst-sørøst, skiftende mellom Øst og Sør-sørøst
Temperatur 32°C
Luftfuktighet 34%
Trykk 1014 hPa
Sikt 10 km eller mer

METAR: EFVA 181420Z AUTO 12006KT 080V160 9999 FEW077/// 32/14 Q1014

Tid: 17:34 (14:34 UTC)

Varsel

Denne rapporten ble laget for 3 timer og 4 minutter siden, klokken 11:30 UTC
Varsel gyldig fra 18. klokken 12 UTC til 19. klokken 12 UTC
Vind 7 kt fra Øst-sørøst
Sikt 10 km eller mer
ingen skyer under 1500 m og ingen bygeskyer

TAF: EFVA 181130Z 1812/1912 12007KT CAVOK

Værobservasjoner og værvarsel for over 4000 flyplasser (METAR- og TAF-rapporter).

Tilgjengelige stasjoner er representert av de røde og gule prikkene på kartet.

Hold musepekeren over prikken for å se navnet på stasjonen.

Klikk så for å se værobservasjoner og -varsler.

For å forandre kartet kan du klikke på den grønne knappen med svart kryss for å zoome inn, på den grønne knappen med strek for å zoome ut, eller på de grønne pilene for å se tilstøtende kart.


METAR-TAF: